createdAt,value
2023-03-22T00:01:48.663Z,1.20
2023-03-22T00:04:46.584Z,1.20
2023-03-22T00:07:44.393Z,1.20
2023-03-22T00:10:42.591Z,1.30
2023-03-22T00:13:40.441Z,1.30
2023-03-22T00:16:38.097Z,1.30
2023-03-22T00:19:35.823Z,1.30
2023-03-22T00:22:33.886Z,1.30
2023-03-22T00:25:32.006Z,1.30
2023-03-22T00:28:29.660Z,1.30
2023-03-22T00:31:27.434Z,1.30
2023-03-22T00:34:25.120Z,1.40
2023-03-22T00:37:22.847Z,1.40
2023-03-22T00:40:20.793Z,1.40
2023-03-22T00:43:18.829Z,1.40
2023-03-22T00:46:18.442Z,1.40
2023-03-22T00:49:16.146Z,1.60
2023-03-22T00:52:13.859Z,1.60
2023-03-22T00:55:11.608Z,1.60
2023-03-22T00:58:09.158Z,1.60
2023-03-22T01:01:07.883Z,1.50
2023-03-22T01:04:06.081Z,1.60
2023-03-22T01:07:08.167Z,1.50
2023-03-22T01:10:07.187Z,1.50
2023-03-22T01:13:05.576Z,1.50
2023-03-22T01:16:03.296Z,1.50
2023-03-22T01:19:01.812Z,1.50
2023-03-22T01:21:59.742Z,1.50
2023-03-22T01:24:57.392Z,1.50
2023-03-22T01:27:55.346Z,1.60
2023-03-22T01:30:53.090Z,1.60
2023-03-22T01:33:51.311Z,1.70
2023-03-22T01:36:50.664Z,1.70
2023-03-22T01:39:48.769Z,1.70
2023-03-22T01:42:46.582Z,1.70
2023-03-22T01:45:46.184Z,1.80
2023-03-22T01:48:47.032Z,1.80
2023-03-22T01:51:47.690Z,1.90
2023-03-22T01:54:49.407Z,1.90
2023-03-22T01:57:47.149Z,2.00
2023-03-22T02:00:47.242Z,2.00
2023-03-22T02:03:50.735Z,2.10
2023-03-22T02:06:49.008Z,2.20
2023-03-22T02:09:47.559Z,2.20
2023-03-22T02:13:02.587Z,2.30
2023-03-22T02:16:52.500Z,2.40
2023-03-22T02:20:25.030Z,2.50
2023-03-22T02:23:46.631Z,2.70
2023-03-22T02:27:07.516Z,2.80
2023-03-22T02:30:21.311Z,2.90
2023-03-22T02:33:21.963Z,2.90
2023-03-22T02:36:46.988Z,3.10
2023-03-22T02:40:06.094Z,3.20
2023-03-22T02:43:16.558Z,3.20
2023-03-22T02:46:27.066Z,3.30
2023-03-22T02:49:46.460Z,3.40
2023-03-22T02:52:54.449Z,3.50
2023-03-22T02:56:30.674Z,3.60
2023-03-22T02:59:30.313Z,3.80
2023-03-22T03:02:29.585Z,3.80
2023-03-22T03:05:30.776Z,3.90
2023-03-22T03:08:29.810Z,4.00
2023-03-22T03:11:27.499Z,4.00
2023-03-22T03:14:31.381Z,4.10
2023-03-22T03:17:54.375Z,4.20
2023-03-22T03:21:05.318Z,4.30
2023-03-22T03:24:33.010Z,4.40
2023-03-22T03:27:50.287Z,4.50
2023-03-22T03:31:00.106Z,4.50
2023-03-22T03:34:06.069Z,4.60
2023-03-22T03:37:16.383Z,4.60
2023-03-22T03:40:18.614Z,4.70
2023-03-22T03:43:17.160Z,4.70
2023-03-22T03:46:16.462Z,4.70
2023-03-22T03:49:16.933Z,4.70
2023-03-22T03:52:15.225Z,4.70
2023-03-22T03:55:13.265Z,4.80
2023-03-22T03:58:12.395Z,4.90
2023-03-22T04:01:10.526Z,4.90
2023-03-22T04:04:08.371Z,4.90
2023-03-22T04:07:07.670Z,4.90
2023-03-22T04:10:06.539Z,5.10
2023-03-22T04:13:04.262Z,5.00
2023-03-22T04:16:02.538Z,4.70
2023-03-22T04:19:00.202Z,4.80
2023-03-22T04:21:57.789Z,5.00
2023-03-22T04:24:56.392Z,5.00
2023-03-22T04:27:56.329Z,5.20
2023-03-22T04:30:54.367Z,5.40
2023-03-22T04:33:55.707Z,5.30
2023-03-22T04:36:53.626Z,5.20
2023-03-22T04:39:51.753Z,5.40
2023-03-22T04:42:49.692Z,5.30
2023-03-22T04:45:47.967Z,5.40
2023-03-22T04:48:46.008Z,5.60
2023-03-22T04:51:44.273Z,5.70
2023-03-22T04:54:42.598Z,5.70
2023-03-22T04:57:40.611Z,5.80
2023-03-22T05:00:39.153Z,5.90
2023-03-22T05:03:37.884Z,6.00
2023-03-22T05:06:36.309Z,6.20
2023-03-22T05:09:34.263Z,6.20
2023-03-22T05:12:33.249Z,6.20
2023-03-22T05:15:32.958Z,6.30
2023-03-22T05:18:33.466Z,6.40
2023-03-22T05:39:00.204Z,6.70
2023-03-22T05:41:57.846Z,6.80
2023-03-22T05:44:55.882Z,6.70
2023-03-22T05:47:53.661Z,6.80
2023-03-22T05:50:51.465Z,6.80
2023-03-22T05:53:49.901Z,6.90
2023-03-22T05:56:47.871Z,6.90
2023-03-22T05:59:45.481Z,6.70
2023-03-22T06:02:47.973Z,6.50
2023-03-22T06:05:47.036Z,6.50
2023-03-22T06:08:44.808Z,6.70
2023-03-22T06:11:42.582Z,6.40
2023-03-22T06:14:40.286Z,6.50
2023-03-22T06:17:38.299Z,6.70
2023-03-22T06:20:36.066Z,6.90
2023-03-22T06:23:33.672Z,7.20
2023-03-22T06:26:31.808Z,7.40
2023-03-22T06:29:29.598Z,7.50
2023-03-22T06:32:27.602Z,7.40
2023-03-22T06:35:25.213Z,7.40
2023-03-22T06:38:22.893Z,7.30
2023-03-22T06:41:20.734Z,7.40
2023-03-22T06:44:18.806Z,7.50
2023-03-22T06:47:16.426Z,7.60
2023-03-22T06:50:15.874Z,7.70
2023-03-22T06:53:13.501Z,7.80
2023-03-22T06:56:11.192Z,7.90
2023-03-22T06:59:08.896Z,7.70
2023-03-22T07:02:06.863Z,7.70
2023-03-22T07:05:04.758Z,7.70
2023-03-22T07:08:02.614Z,8.00
2023-03-22T07:11:00.369Z,8.20
2023-03-22T07:13:58.681Z,8.50
2023-03-22T07:16:56.941Z,8.70
2023-03-22T07:19:54.783Z,8.80
2023-03-22T08:19:29.205Z,8.80
2023-03-22T08:22:55.328Z,8.80
2023-03-22T08:25:53.561Z,8.90
2023-03-22T08:28:51.437Z,8.90
2023-03-22T08:31:49.219Z,9.00
2023-03-22T08:34:47.074Z,9.10
2023-03-22T08:37:44.808Z,9.30
2023-03-22T08:40:42.560Z,9.40
2023-03-22T08:43:41.000Z,9.50
2023-03-22T08:46:39.822Z,9.60
2023-03-22T08:49:42.698Z,9.60
2023-03-22T08:52:41.760Z,9.70
2023-03-22T08:55:40.656Z,9.80
2023-03-22T08:58:38.805Z,9.60
2023-03-22T09:01:38.133Z,9.40
2023-03-22T09:04:36.600Z,9.50
2023-03-22T09:07:34.382Z,9.50
2023-03-22T09:10:32.613Z,9.50
2023-03-22T09:13:31.718Z,9.50
2023-03-22T09:16:29.405Z,9.60
2023-03-22T09:19:27.168Z,9.60
2023-03-22T09:22:25.395Z,9.60
2023-03-22T09:25:23.493Z,9.60
2023-03-22T09:28:21.418Z,9.80
2023-03-22T09:31:20.739Z,9.80
2023-03-22T09:34:18.574Z,9.90
2023-03-22T09:37:16.361Z,9.80
2023-03-22T09:40:14.843Z,9.90
2023-03-22T09:43:16.001Z,9.70
2023-03-22T09:46:23.996Z,9.80
2023-03-22T09:49:29.591Z,9.90
2023-03-22T09:52:27.290Z,9.90
2023-03-22T09:55:40.337Z,9.90
2023-03-22T09:59:07.297Z,9.70
2023-03-22T10:02:31.997Z,9.40
2023-03-22T10:05:53.244Z,9.40
2023-03-22T10:08:53.628Z,9.40
2023-03-22T10:12:00.671Z,9.60
2023-03-22T10:15:16.570Z,9.90
2023-03-22T10:18:21.289Z,10.00
2023-03-22T10:21:20.047Z,10.30
2023-03-22T10:24:24.800Z,10.50
2023-03-22T10:27:24.945Z,10.70
2023-03-22T10:30:28.642Z,10.90
2023-03-22T10:33:39.643Z,10.50
2023-03-22T10:36:42.018Z,10.50
2023-03-22T10:39:53.265Z,10.70
2023-03-22T10:43:19.786Z,10.70
2023-03-22T10:46:21.753Z,10.80
2023-03-22T10:49:44.703Z,10.90
2023-03-22T10:52:52.189Z,10.80
2023-03-22T10:55:50.325Z,10.80
2023-03-22T10:58:55.548Z,10.70
2023-03-22T11:01:53.738Z,10.30
2023-03-22T11:04:56.264Z,9.90
2023-03-22T11:07:54.449Z,9.90
2023-03-22T11:10:59.642Z,10.00
2023-03-22T11:14:09.222Z,9.90
2023-03-22T11:17:06.861Z,10.10
2023-03-22T11:24:16.637Z,10.40
2023-03-22T11:27:31.877Z,10.50
2023-03-22T11:34:47.943Z,10.80
2023-03-22T11:37:49.015Z,10.70
2023-03-22T11:41:01.892Z,10.50
2023-03-22T11:44:04.495Z,10.30
2023-03-22T11:47:05.434Z,10.20
2023-03-22T11:50:10.867Z,10.10
2023-03-22T11:53:17.856Z,10.10
2023-03-22T12:00:31.606Z,9.90
2023-03-22T12:03:38.404Z,9.80
2023-03-22T12:06:41.745Z,9.70
2023-03-22T12:09:51.266Z,9.70
2023-03-22T12:12:58.298Z,9.60
2023-03-22T12:16:14.082Z,9.50
2023-03-22T12:19:36.720Z,9.40
2023-03-22T12:22:41.088Z,9.40
2023-03-22T12:25:42.121Z,9.30
2023-03-22T12:29:04.427Z,9.10
2023-03-22T12:32:10.953Z,9.10
2023-03-22T12:35:17.927Z,9.10
2023-03-22T12:38:31.377Z,9.00
2023-03-22T12:41:36.963Z,8.90
2023-03-22T12:44:42.326Z,8.80
2023-03-22T12:47:47.709Z,8.80
2023-03-22T12:51:03.562Z,8.80
2023-03-22T12:54:02.660Z,8.80
2023-03-22T12:57:03.126Z,8.80
2023-03-22T13:00:11.164Z,8.80
2023-03-22T13:03:25.825Z,8.80
2023-03-22T13:06:54.327Z,8.70
2023-03-22T13:09:53.457Z,8.70
2023-03-22T13:13:26.139Z,8.60
2023-03-22T13:16:42.926Z,8.50
2023-03-22T13:19:55.124Z,8.50
2023-03-22T13:23:04.911Z,8.40
2023-03-22T13:26:06.581Z,8.30
2023-03-22T13:29:22.638Z,8.30
2023-03-22T13:32:34.137Z,8.20
2023-03-22T13:35:58.109Z,8.10
2023-03-22T13:38:59.490Z,8.00
2023-03-22T13:42:23.071Z,7.90
2023-03-22T13:45:36.523Z,7.90
2023-03-22T13:48:54.669Z,7.80
2023-03-22T13:51:53.293Z,7.80
2023-03-22T13:54:53.318Z,7.90
2023-03-22T13:57:59.727Z,7.90
2023-03-22T14:00:58.844Z,7.70
2023-03-22T14:04:01.728Z,7.50
2023-03-22T14:07:20.321Z,7.40
2023-03-22T14:10:36.758Z,7.40
2023-03-22T14:13:41.686Z,7.40
2023-03-22T14:16:44.359Z,7.30
2023-03-22T14:19:42.862Z,7.20
